sensor_id;sensor_type;location;lat;lon;timestamp;P1;durP1;ratioP1;P2;durP2;ratioP2
79779;SDS011;69258;52.050;10.334;2024-03-22T00:07:34;2.77;;;1.90;;
79779;SDS011;69258;52.050;10.334;2024-03-22T00:22:35;2.37;;;1.90;;
79779;SDS011;69258;52.050;10.334;2024-03-22T00:37:36;4.30;;;2.30;;
79779;SDS011;69258;52.050;10.334;2024-03-22T00:52:39;2.30;;;2.10;;
79779;SDS011;69258;52.050;10.334;2024-03-22T01:07:40;2.37;;;2.17;;
79779;SDS011;69258;52.050;10.334;2024-03-22T01:22:41;3.17;;;2.33;;
79779;SDS011;69258;52.050;10.334;2024-03-22T01:37:43;2.23;;;2.03;;
79779;SDS011;69258;52.050;10.334;2024-03-22T01:52:44;2.13;;;2.03;;
79779;SDS011;69258;52.050;10.334;2024-03-22T02:07:45;3.10;;;2.30;;
79779;SDS011;69258;52.050;10.334;2024-03-22T02:22:46;6.47;;;2.10;;
79779;SDS011;69258;52.050;10.334;2024-03-22T02:37:47;7.30;;;2.23;;
79779;SDS011;69258;52.050;10.334;2024-03-22T02:52:49;2.17;;;1.97;;
79779;SDS011;69258;52.050;10.334;2024-03-22T03:07:53;2.30;;;2.10;;
79779;SDS011;69258;52.050;10.334;2024-03-22T03:22:55;2.13;;;1.97;;
79779;SDS011;69258;52.050;10.334;2024-03-22T03:37:55;2.03;;;1.83;;
79779;SDS011;69258;52.050;10.334;2024-03-22T03:52:56;2.30;;;2.10;;
79779;SDS011;69258;52.050;10.334;2024-03-22T04:07:57;2.70;;;2.33;;
79779;SDS011;69258;52.050;10.334;2024-03-22T04:22:59;2.30;;;2.10;;
79779;SDS011;69258;52.050;10.334;2024-03-22T04:38:01;2.33;;;2.03;;
79779;SDS011;69258;52.050;10.334;2024-03-22T04:53:02;2.27;;;2.07;;
79779;SDS011;69258;52.050;10.334;2024-03-22T05:08:04;2.83;;;2.00;;
79779;SDS011;69258;52.050;10.334;2024-03-22T05:23:07;6.20;;;2.10;;
79779;SDS011;69258;52.050;10.334;2024-03-22T05:38:09;2.40;;;2.20;;
79779;SDS011;69258;52.050;10.334;2024-03-22T05:53:09;2.20;;;2.00;;
79779;SDS011;69258;52.050;10.334;2024-03-22T06:08:10;5.30;;;2.33;;
79779;SDS011;69258;52.050;10.334;2024-03-22T06:23:11;5.87;;;2.30;;
79779;SDS011;69258;52.050;10.334;2024-03-22T06:38:13;6.97;;;4.90;;
79779;SDS011;69258;52.050;10.334;2024-03-22T06:53:14;7.13;;;4.77;;
79779;SDS011;69258;52.050;10.334;2024-03-22T07:08:15;7.80;;;4.40;;
79779;SDS011;69258;52.050;10.334;2024-03-22T07:23:17;6.03;;;3.40;;
79779;SDS011;69258;52.050;10.334;2024-03-22T07:38:18;4.70;;;3.40;;
79779;SDS011;69258;52.050;10.334;2024-03-22T07:53:19;3.13;;;2.83;;
79779;SDS011;69258;52.050;10.334;2024-03-22T08:08:21;3.97;;;3.57;;
79779;SDS011;69258;52.050;10.334;2024-03-22T08:23:21;14.93;;;4.13;;
79779;SDS011;69258;52.050;10.334;2024-03-22T08:38:23;7.33;;;3.70;;
79779;SDS011;69258;52.050;10.334;2024-03-22T08:53:24;6.50;;;4.27;;
79779;SDS011;69258;52.050;10.334;2024-03-22T09:08:25;5.87;;;3.67;;
79779;SDS011;69258;52.050;10.334;2024-03-22T09:23:25;6.07;;;3.40;;
79779;SDS011;69258;52.050;10.334;2024-03-22T09:38:26;9.20;;;3.57;;
79779;SDS011;69258;52.050;10.334;2024-03-22T09:53:27;12.80;;;7.77;;
79779;SDS011;69258;52.050;10.334;2024-03-22T10:08:30;8.13;;;4.80;;
79779;SDS011;69258;52.050;10.334;2024-03-22T10:23:32;5.50;;;3.60;;
79779;SDS011;69258;52.050;10.334;2024-03-22T10:38:35;5.33;;;3.07;;
79779;SDS011;69258;52.050;10.334;2024-03-22T10:53:39;6.80;;;3.37;;
79779;SDS011;69258;52.050;10.334;2024-03-22T11:08:41;3.80;;;3.40;;
79779;SDS011;69258;52.050;10.334;2024-03-22T11:23:46;4.73;;;3.17;;
79779;SDS011;69258;52.050;10.334;2024-03-22T11:38:48;4.43;;;3.27;;
79779;SDS011;69258;52.050;10.334;2024-03-22T11:53:50;13.83;;;5.73;;
79779;SDS011;69258;52.050;10.334;2024-03-22T12:08:54;13.20;;;5.50;;
79779;SDS011;69258;52.050;10.334;2024-03-22T12:23:56;9.63;;;4.93;;
79779;SDS011;69258;52.050;10.334;2024-03-22T12:38:56;8.90;;;4.47;;
79779;SDS011;69258;52.050;10.334;2024-03-22T12:53:57;16.37;;;4.60;;
79779;SDS011;69258;52.050;10.334;2024-03-22T13:08:58;9.30;;;4.50;;
79779;SDS011;69258;52.050;10.334;2024-03-22T13:23:59;8.60;;;4.20;;
79779;SDS011;69258;52.050;10.334;2024-03-22T13:39:00;9.87;;;4.90;;
79779;SDS011;69258;52.050;10.334;2024-03-22T13:54:00;7.87;;;4.70;;
79779;SDS011;69258;52.050;10.334;2024-03-22T14:09:02;9.57;;;4.23;;
79779;SDS011;69258;52.050;10.334;2024-03-22T14:24:03;11.40;;;5.03;;
79779;SDS011;69258;52.050;10.334;2024-03-22T14:39:03;15.47;;;8.40;;
79779;SDS011;69258;52.050;10.334;2024-03-22T14:54:04;27.07;;;14.23;;
79779;SDS011;69258;52.050;10.334;2024-03-22T15:09:05;32.07;;;18.07;;
79779;SDS011;69258;52.050;10.334;2024-03-22T15:24:06;47.87;;;24.47;;
79779;SDS011;69258;52.050;10.334;2024-03-22T15:39:06;47.73;;;27.10;;
79779;SDS011;69258;52.050;10.334;2024-03-22T15:54:08;53.27;;;30.23;;
79779;SDS011;69258;52.050;10.334;2024-03-22T16:09:10;55.07;;;31.93;;
79779;SDS011;69258;52.050;10.334;2024-03-22T16:24:11;62.47;;;35.67;;
79779;SDS011;69258;52.050;10.334;2024-03-22T16:39:13;77.83;;;43.10;;
79779;SDS011;69258;52.050;10.334;2024-03-22T16:54:14;77.30;;;43.60;;
79779;SDS011;69258;52.050;10.334;2024-03-22T17:09:15;76.90;;;44.53;;
79779;SDS011;69258;52.050;10.334;2024-03-22T17:24:15;75.40;;;44.30;;
79779;SDS011;69258;52.050;10.334;2024-03-22T17:39:17;75.00;;;43.03;;
79779;SDS011;69258;52.050;10.334;2024-03-22T17:54:18;71.10;;;40.90;;
79779;SDS011;69258;52.050;10.334;2024-03-22T18:09:18;68.00;;;38.13;;
79779;SDS011;69258;52.050;10.334;2024-03-22T18:24:20;62.43;;;36.97;;
79779;SDS011;69258;52.050;10.334;2024-03-22T18:39:22;63.57;;;35.40;;
79779;SDS011;69258;52.050;10.334;2024-03-22T18:54:26;55.40;;;34.60;;
79779;SDS011;69258;52.050;10.334;2024-03-22T19:09:28;52.83;;;32.80;;
79779;SDS011;69258;52.050;10.334;2024-03-22T19:24:29;48.20;;;30.97;;
79779;SDS011;69258;52.050;10.334;2024-03-22T19:39:29;47.67;;;30.47;;
79779;SDS011;69258;52.050;10.334;2024-03-22T19:54:31;47.10;;;29.37;;
79779;SDS011;69258;52.050;10.334;2024-03-22T20:09:32;39.10;;;26.07;;
79779;SDS011;69258;52.050;10.334;2024-03-22T20:24:33;41.70;;;25.50;;
